createdAt,value
2018-01-01T00:00:34.248Z,7.62
2018-01-01T00:03:03.404Z,6.20
2018-01-01T00:05:32.396Z,9.23
2018-01-01T00:08:01.081Z,12.82
2018-01-01T00:10:30.274Z,8.90
2018-01-01T00:12:58.760Z,10.10
2018-01-01T00:15:26.929Z,8.20
2018-01-01T00:17:56.182Z,11.40
2018-01-01T00:20:25.286Z,12.15
2018-01-01T00:22:58.626Z,10.60
2018-01-01T00:25:26.905Z,11.52
2018-01-01T00:27:55.093Z,10.82
2018-01-01T00:30:24.426Z,11.02
2018-01-01T00:33:00.742Z,10.88
2018-01-01T00:35:41.872Z,16.02
2018-01-01T00:38:11.352Z,14.80
2018-01-01T00:40:41.727Z,17.00
2018-01-01T00:43:13.581Z,15.70
2018-01-01T00:45:42.028Z,15.40
2018-01-01T00:48:16.778Z,10.90
2018-01-01T00:50:46.086Z,14.75
2018-01-01T00:53:17.376Z,15.65
2018-01-01T00:55:45.831Z,11.10
2018-01-01T00:58:14.021Z,10.95
2018-01-01T01:00:42.432Z,7.82
2018-01-01T01:03:19.933Z,7.43
2018-01-01T01:05:49.176Z,5.18
2018-01-01T01:08:18.496Z,5.95
2018-01-01T01:10:47.538Z,5.40
2018-01-01T01:13:17.740Z,5.05
2018-01-01T01:15:46.764Z,2.60
2018-01-01T01:18:16.421Z,2.30
2018-01-01T01:20:45.454Z,2.45
2018-01-01T01:23:15.200Z,3.33
2018-01-01T01:25:43.879Z,2.20
2018-01-01T01:28:12.074Z,2.20
2018-01-01T01:30:40.478Z,2.12
2018-01-01T01:33:15.435Z,2.70
2018-01-01T01:35:49.145Z,1.98
2018-01-01T01:38:18.114Z,1.83
2018-01-01T01:40:46.889Z,2.40
2018-01-01T01:43:18.446Z,1.33
2018-01-01T01:45:46.588Z,1.48
2018-01-01T01:48:14.736Z,4.15
2018-01-01T01:50:42.917Z,1.52
2018-01-01T01:53:12.733Z,4.50
2018-01-01T01:55:42.296Z,1.23
2018-01-01T01:58:10.634Z,1.45
2018-01-01T02:00:38.860Z,2.70
2018-01-01T02:03:07.549Z,1.95
2018-01-01T02:05:35.724Z,1.10
2018-01-01T02:08:06.139Z,1.60
2018-01-01T02:10:34.308Z,1.20
2018-01-01T02:13:05.753Z,1.40
2018-01-01T02:15:33.932Z,2.03
2018-01-01T02:18:02.146Z,1.10
2018-01-01T02:20:31.971Z,0.88
2018-01-01T02:23:00.164Z,2.37
2018-01-01T02:25:28.673Z,1.17
2018-01-01T02:27:57.183Z,2.60
2018-01-01T02:30:26.175Z,1.42
2018-01-01T02:32:55.737Z,1.70
2018-01-01T02:35:24.721Z,2.87
2018-01-01T02:37:52.984Z,1.87
2018-01-01T02:40:22.877Z,1.50
2018-01-01T02:42:52.135Z,0.90
2018-01-01T02:45:20.817Z,1.80
2018-01-01T02:47:52.982Z,1.20
2018-01-01T02:50:21.176Z,1.90
2018-01-01T02:52:49.433Z,1.52
2018-01-01T02:55:18.668Z,0.70
2018-01-01T02:57:47.893Z,0.77
2018-01-01T03:00:17.406Z,1.10
2018-01-01T03:02:45.690Z,1.60
2018-01-01T03:05:17.044Z,0.98
2018-01-01T03:07:45.758Z,1.48
2018-01-01T03:10:14.497Z,1.15
2018-01-01T03:12:42.940Z,1.70
2018-01-01T03:15:13.199Z,1.40
2018-01-01T03:17:42.616Z,1.40
2018-01-01T03:20:11.820Z,1.17
2018-01-01T03:22:42.818Z,1.52
2018-01-01T03:25:11.775Z,1.37
2018-01-01T03:27:42.654Z,1.00
2018-01-01T03:30:11.594Z,1.10
2018-01-01T03:32:40.884Z,1.87
2018-01-01T03:35:10.133Z,1.98
2018-01-01T03:37:43.293Z,2.75
2018-01-01T03:40:11.670Z,1.35
2018-01-01T03:42:41.464Z,2.75
2018-01-01T03:45:09.645Z,1.15
2018-01-01T03:47:38.797Z,1.40
2018-01-01T03:50:06.953Z,1.20
2018-01-01T03:52:36.010Z,2.67
2018-01-01T03:55:04.933Z,3.35
2018-01-01T03:57:33.100Z,3.58
2018-01-01T04:00:02.609Z,4.93
2018-01-01T04:02:32.585Z,1.77
2018-01-01T04:05:02.122Z,2.47
2018-01-01T04:07:31.562Z,1.77
2018-01-01T04:09:59.947Z,0.90
2018-01-01T04:12:30.703Z,2.75
2018-01-01T04:14:59.918Z,2.05
2018-01-01T04:17:28.863Z,2.37
2018-01-01T04:19:57.292Z,1.42
2018-01-01T04:22:25.537Z,1.48
2018-01-01T04:24:54.533Z,1.17
2018-01-01T04:27:23.753Z,2.53
2018-01-01T04:29:53.365Z,3.65
2018-01-01T04:32:22.531Z,2.97
2018-01-01T04:34:50.706Z,1.25
2018-01-01T04:37:18.888Z,2.67
2018-01-01T04:39:50.278Z,1.23
2018-01-01T04:42:18.741Z,3.65
2018-01-01T04:44:47.644Z,2.60
2018-01-01T04:47:16.747Z,2.05
2018-01-01T04:49:45.617Z,4.05
2018-01-01T04:52:15.048Z,2.97
2018-01-01T04:54:43.336Z,2.50
2018-01-01T04:57:11.855Z,1.23
2018-01-01T04:59:40.750Z,5.07
2018-01-01T05:02:09.397Z,2.28
2018-01-01T05:04:37.852Z,0.95
2018-01-01T05:07:06.013Z,1.25
2018-01-01T05:09:34.175Z,3.75
2018-01-01T05:12:03.885Z,5.12
2018-01-01T05:14:32.039Z,2.65
2018-01-01T05:17:01.009Z,3.08
2018-01-01T05:19:31.104Z,6.65
2018-01-01T05:21:59.333Z,3.20
2018-01-01T05:24:27.501Z,1.05
2018-01-01T05:26:56.695Z,2.85
2018-01-01T05:29:24.820Z,4.82
2018-01-01T05:31:54.616Z,2.17
2018-01-01T05:34:23.429Z,4.05
2018-01-01T05:36:51.565Z,3.87
2018-01-01T05:39:19.720Z,4.32
2018-01-01T05:41:48.730Z,2.75
2018-01-01T05:44:16.897Z,2.47
2018-01-01T05:46:45.658Z,8.98
2018-01-01T05:49:13.845Z,3.67
2018-01-01T05:51:42.789Z,3.95
2018-01-01T05:54:10.956Z,2.85
2018-01-01T05:56:39.080Z,4.87
2018-01-01T05:59:07.261Z,2.90
2018-01-01T06:01:36.228Z,2.70
2018-01-01T06:04:05.899Z,4.20
2018-01-01T06:06:35.027Z,1.67
2018-01-01T06:09:03.872Z,1.05
2018-01-01T06:11:32.017Z,1.85
2018-01-01T06:14:00.177Z,2.40
2018-01-01T06:16:29.968Z,1.55
2018-01-01T06:18:58.130Z,4.10
2018-01-01T06:21:26.288Z,2.67
2018-01-01T06:23:55.320Z,2.12
2018-01-01T06:26:24.302Z,5.75
2018-01-01T06:28:53.703Z,2.67
2018-01-01T06:31:21.825Z,4.70
2018-01-01T06:33:49.993Z,5.18
2018-01-01T06:36:18.706Z,6.60
2018-01-01T06:38:46.911Z,12.52
2018-01-01T06:41:15.130Z,3.90
2018-01-01T06:43:43.309Z,2.30
2018-01-01T06:46:11.458Z,5.82
2018-01-01T06:48:40.409Z,6.90
2018-01-01T06:51:08.553Z,3.97
2018-01-01T06:53:37.533Z,2.10
2018-01-01T06:56:06.722Z,4.37
2018-01-01T06:58:34.911Z,2.92
2018-01-01T07:01:03.577Z,2.75
2018-01-01T07:03:34.637Z,4.00
2018-01-01T07:06:03.810Z,1.73
2018-01-01T07:08:33.509Z,4.68
2018-01-01T07:11:01.714Z,1.92
2018-01-01T07:13:31.536Z,3.15
2018-01-01T07:16:00.174Z,4.10
2018-01-01T07:18:28.351Z,4.95
2018-01-01T07:20:57.889Z,2.22
2018-01-01T07:23:27.089Z,1.30
2018-01-01T07:25:56.987Z,1.65
2018-01-01T07:28:27.309Z,2.28
2018-01-01T07:30:57.035Z,3.33
2018-01-01T07:33:27.067Z,3.08
2018-01-01T07:35:55.220Z,4.22
2018-01-01T07:38:24.368Z,1.40
2018-01-01T07:40:53.244Z,2.97
2018-01-01T07:43:21.454Z,2.30
2018-01-01T07:45:49.662Z,1.25
2018-01-01T07:48:24.860Z,3.42
2018-01-01T07:50:54.805Z,2.78
2018-01-01T07:53:24.516Z,3.40
2018-01-01T07:55:55.123Z,2.95
2018-01-01T07:58:24.197Z,2.25
2018-01-01T08:00:52.399Z,1.25
2018-01-01T08:03:21.352Z,2.40
2018-01-01T08:05:50.134Z,8.18
2018-01-01T08:08:18.356Z,2.20
2018-01-01T08:10:47.724Z,1.98
2018-01-01T08:13:19.860Z,3.40
2018-01-01T08:15:49.832Z,3.12
2018-01-01T08:18:19.642Z,3.30
2018-01-01T08:20:47.794Z,3.72
2018-01-01T08:23:16.922Z,4.30
2018-01-01T08:25:47.823Z,2.95
2018-01-01T08:28:16.020Z,4.30
2018-01-01T08:30:44.447Z,1.12
2018-01-01T08:33:13.354Z,10.13
2018-01-01T08:35:43.660Z,4.15
2018-01-01T08:38:13.337Z,4.53
2018-01-01T08:40:42.728Z,2.65
2018-01-01T08:43:12.349Z,3.75
2018-01-01T08:45:41.168Z,8.40
2018-01-01T08:48:10.694Z,6.72
2018-01-01T08:50:39.542Z,1.45
2018-01-01T08:53:08.781Z,1.55
2018-01-01T08:55:41.629Z,7.68
2018-01-01T08:58:12.551Z,2.58
2018-01-01T09:00:43.587Z,3.30
2018-01-01T09:03:14.749Z,4.28
2018-01-01T09:05:43.955Z,2.20
2018-01-01T09:08:12.228Z,6.32
2018-01-01T09:10:40.536Z,5.93
2018-01-01T09:13:09.215Z,5.45
2018-01-01T09:15:38.181Z,10.45
2018-01-01T09:18:08.406Z,4.72
2018-01-01T09:20:38.012Z,1.87
2018-01-01T09:23:07.377Z,2.22
2018-01-01T09:25:36.644Z,5.45
2018-01-01T09:28:04.797Z,2.30
2018-01-01T09:30:34.030Z,3.83
2018-01-01T09:33:03.376Z,2.90
2018-01-01T09:35:33.080Z,2.62
2018-01-01T09:38:05.600Z,1.25
2018-01-01T09:40:35.580Z,2.47
2018-01-01T09:43:05.316Z,2.90
2018-01-01T09:45:34.305Z,2.37
2018-01-01T09:48:03.644Z,4.93
2018-01-01T09:50:34.426Z,3.40
2018-01-01T09:53:04.518Z,5.68
2018-01-01T09:55:35.470Z,3.47
2018-01-01T10:01:18.910Z,4.47
2018-01-01T10:03:50.335Z,1.98
2018-01-01T10:06:19.752Z,2.45
2018-01-01T10:08:49.161Z,5.22
2018-01-01T10:11:19.495Z,2.55
2018-01-01T10:13:51.433Z,3.58
2018-01-01T10:16:54.965Z,8.88
2018-01-01T10:21:59.668Z,3.45
2018-01-01T10:24:31.886Z,2.47
2018-01-01T10:27:01.995Z,2.60
2018-01-01T10:29:31.411Z,7.90
2018-01-01T10:32:01.026Z,2.72
2018-01-01T10:34:31.981Z,0.68
2018-01-01T10:37:01.642Z,4.05
2018-01-01T10:39:31.084Z,2.47
2018-01-01T10:42:00.609Z,6.22
2018-01-01T10:44:30.698Z,4.75
2018-01-01T10:47:00.464Z,5.55
2018-01-01T10:49:30.053Z,5.65
2018-01-01T10:52:04.520Z,3.58
2018-01-01T10:54:35.203Z,5.80
2018-01-01T10:57:05.073Z,4.00
2018-01-01T10:59:34.490Z,3.55
2018-01-01T11:02:04.976Z,3.67
2018-01-01T11:04:34.425Z,1.50
2018-01-01T11:07:04.542Z,1.62
2018-01-01T11:09:33.977Z,1.12
2018-01-01T11:12:04.161Z,2.65
2018-01-01T11:14:33.805Z,3.70
2018-01-01T11:17:03.209Z,1.45
2018-01-01T11:19:33.150Z,4.40
2018-01-01T11:22:04.562Z,2.80
2018-01-01T11:24:34.205Z,2.60
2018-01-01T11:27:26.465Z,2.53
2018-01-01T11:30:19.722Z,2.97
2018-01-01T11:32:57.519Z,1.23
2018-01-01T11:35:38.045Z,3.03
2018-01-01T11:38:22.843Z,2.50
2018-01-01T11:40:52.705Z,6.55
2018-01-01T11:43:22.275Z,5.75
2018-01-01T11:45:52.536Z,3.80
2018-01-01T11:48:21.980Z,7.30
2018-01-01T11:50:51.487Z,3.83
2018-01-01T11:53:21.002Z,3.17
2018-01-01T11:55:50.425Z,5.53
2018-01-01T11:58:19.850Z,6.82
2018-01-01T12:00:49.368Z,2.87
2018-01-01T12:03:18.888Z,3.95
2018-01-01T12:05:48.393Z,6.03
2018-01-01T12:08:17.861Z,4.82
2018-01-01T12:10:47.346Z,2.97
2018-01-01T12:13:17.718Z,4.07
2018-01-01T12:15:47.129Z,2.92
2018-01-01T12:18:17.495Z,2.67
2018-01-01T12:20:46.990Z,3.30
2018-01-01T12:23:16.542Z,4.62
2018-01-01T12:25:46.702Z,4.82
2018-01-01T12:28:16.186Z,3.95
2018-01-01T12:30:45.679Z,7.45
2018-01-01T12:33:15.733Z,6.18
2018-01-01T12:35:45.303Z,4.22
2018-01-01T12:38:14.735Z,2.72
2018-01-01T12:40:44.825Z,3.28
2018-01-01T12:43:14.367Z,3.25
2018-01-01T12:45:43.779Z,2.45
2018-01-01T12:48:13.992Z,2.80
2018-01-01T12:50:43.420Z,5.15
2018-01-01T12:53:12.901Z,6.80
2018-01-01T12:55:42.413Z,4.80
2018-01-01T12:58:11.907Z,6.95
2018-01-01T13:00:41.399Z,6.53
2018-01-01T13:03:12.425Z,5.00
2018-01-01T13:05:42.108Z,2.47
2018-01-01T13:08:11.524Z,6.60
2018-01-01T13:10:40.953Z,4.68
2018-01-01T13:13:10.483Z,1.60
2018-01-01T13:15:39.952Z,2.33
2018-01-01T13:18:09.374Z,4.15
2018-01-01T13:20:38.781Z,4.50
2018-01-01T13:23:08.513Z,4.47
2018-01-01T13:25:37.934Z,2.08
2018-01-01T13:28:07.335Z,2.80
2018-01-01T13:30:37.597Z,3.00
2018-01-01T13:33:07.123Z,2.75
2018-01-01T13:35:36.522Z,3.12
2018-01-01T13:38:05.943Z,2.10
2018-01-01T13:40:35.361Z,3.45
2018-01-01T13:43:05.752Z,2.55
2018-01-01T13:45:35.172Z,1.80
2018-01-01T13:48:04.648Z,0.90
2018-01-01T13:50:34.067Z,2.05
2018-01-01T13:53:03.593Z,4.05
2018-01-01T13:55:33.015Z,5.78
2018-01-01T13:58:02.435Z,1.45
2018-01-01T14:00:31.864Z,3.22
2018-01-01T14:03:01.384Z,1.55
2018-01-01T14:05:32.064Z,5.05
2018-01-01T14:08:01.487Z,1.35
2018-01-01T14:10:30.901Z,6.15
2018-01-01T14:13:01.365Z,2.50
2018-01-01T14:15:30.785Z,3.30
2018-01-01T14:18:00.272Z,5.22
2018-01-01T14:20:29.692Z,1.75
2018-01-01T14:22:59.099Z,1.75
2018-01-01T14:25:28.929Z,1.70
2018-01-01T14:28:01.094Z,2.65
2018-01-01T14:30:30.496Z,2.42
2018-01-01T14:33:00.991Z,1.98
2018-01-01T14:35:30.388Z,1.90
2018-01-01T14:37:59.784Z,4.75
2018-01-01T14:40:29.197Z,3.92
2018-01-01T14:42:59.655Z,7.10
2018-01-01T14:45:29.992Z,2.50
2018-01-01T14:47:59.884Z,1.73
2018-01-01T14:50:29.286Z,1.45
2018-01-01T14:52:58.835Z,2.85
2018-01-01T14:55:29.261Z,2.17
2018-01-01T14:57:58.812Z,2.12
2018-01-01T15:00:28.228Z,2.10
2018-01-01T15:03:01.822Z,2.25
2018-01-01T15:05:31.280Z,3.83
2018-01-01T15:08:00.887Z,3.33
2018-01-01T15:10:30.827Z,2.47
2018-01-01T15:13:00.263Z,3.87
2018-01-01T15:15:29.740Z,5.55
2018-01-01T15:18:00.420Z,1.90
2018-01-01T15:20:30.184Z,0.82
2018-01-01T15:23:01.527Z,4.72
2018-01-01T15:25:31.719Z,0.90
2018-01-01T15:28:01.791Z,1.77
2018-01-01T15:30:32.109Z,2.90
2018-01-01T15:33:03.664Z,2.33
2018-01-01T15:35:35.287Z,2.12
2018-01-01T15:38:06.255Z,2.53
2018-01-01T15:40:35.669Z,1.95
2018-01-01T15:43:06.076Z,3.28
2018-01-01T15:45:35.551Z,1.15
2018-01-01T15:48:04.964Z,2.40
2018-01-01T15:50:34.442Z,2.05
2018-01-01T15:53:04.004Z,2.25
2018-01-01T15:55:33.465Z,3.00
2018-01-01T15:58:10.257Z,3.22
2018-01-01T16:00:41.332Z,3.67
2018-01-01T16:03:12.148Z,1.67
2018-01-01T16:05:42.070Z,3.53
2018-01-01T16:08:14.886Z,1.95
2018-01-01T16:10:44.477Z,1.25
2018-01-01T16:13:15.232Z,1.65
2018-01-01T16:15:44.645Z,3.08
2018-01-01T16:18:15.847Z,1.95
2018-01-01T16:20:45.362Z,0.60
2018-01-01T16:25:53.706Z,1.15
2018-01-01T16:28:23.310Z,9.68
2018-01-01T16:30:56.721Z,2.33
2018-01-01T16:33:27.356Z,4.82
2018-01-01T16:35:56.948Z,1.75
2018-01-01T16:38:30.120Z,3.50
2018-01-01T16:41:03.914Z,1.25
2018-01-01T16:43:35.461Z,1.85
2018-01-01T16:46:06.770Z,1.73
2018-01-01T16:48:37.081Z,1.52
2018-01-01T16:51:06.808Z,2.00
2018-01-01T16:53:36.413Z,1.60
2018-01-01T16:56:06.261Z,1.23
2018-01-01T16:58:36.105Z,1.60
2018-01-01T17:01:07.927Z,1.60
2018-01-01T17:03:39.689Z,4.70
2018-01-01T17:06:11.685Z,1.75
2018-01-01T17:08:42.766Z,3.40
2018-01-01T17:11:13.117Z,2.40
2018-01-01T17:13:43.956Z,2.50
2018-01-01T17:16:15.832Z,1.00
2018-01-01T17:18:51.576Z,1.95
2018-01-01T17:21:21.368Z,1.25
2018-01-01T17:23:53.035Z,0.68
2018-01-01T17:26:23.926Z,3.87
2018-01-01T17:28:55.917Z,2.47
2018-01-01T17:31:35.810Z,4.47
2018-01-01T17:34:07.680Z,2.75
2018-01-01T17:36:37.343Z,1.00
2018-01-01T17:39:07.616Z,4.75
2018-01-01T17:41:41.025Z,0.88
2018-01-01T17:44:12.886Z,1.15
2018-01-01T17:46:45.675Z,2.65
2018-01-01T17:49:17.137Z,0.90
2018-01-01T17:51:46.828Z,0.98
2018-01-01T17:54:16.273Z,1.92
2018-01-01T17:56:47.873Z,1.00
2018-01-01T17:59:20.833Z,1.80
2018-01-01T18:01:54.702Z,2.40
2018-01-01T18:04:26.197Z,0.98
2018-01-01T18:06:58.228Z,0.70
2018-01-01T18:09:27.682Z,1.17
2018-01-01T18:14:34.612Z,0.93
2018-01-01T18:17:06.573Z,3.37
2018-01-01T18:19:39.126Z,2.67
2018-01-01T18:22:15.532Z,0.98
2018-01-01T18:24:49.827Z,2.45
2018-01-01T18:27:24.132Z,0.70
2018-01-01T18:29:57.467Z,0.90
2018-01-01T18:32:31.805Z,2.55
2018-01-01T18:35:01.875Z,1.17
2018-01-01T18:37:32.693Z,2.22
2018-01-01T18:40:03.449Z,1.15
2018-01-01T18:42:39.676Z,1.17
2018-01-01T18:45:17.422Z,1.62
2018-01-01T18:47:48.513Z,0.60
2018-01-01T18:50:18.402Z,0.80
2018-01-01T18:52:59.720Z,0.57
2018-01-01T18:55:32.810Z,0.80
2018-01-01T18:58:16.238Z,0.98
2018-01-01T19:00:48.548Z,1.37
2018-01-01T19:03:25.806Z,1.52
2018-01-01T19:06:08.329Z,0.80
2018-01-01T19:11:17.959Z,0.50
2018-01-01T19:13:52.096Z,1.75
2018-01-01T19:16:33.590Z,0.68
2018-01-01T19:19:04.595Z,1.27
2018-01-01T19:24:20.571Z,0.85
2018-01-01T19:26:53.401Z,3.10
2018-01-01T19:29:23.845Z,0.50
2018-01-01T19:31:58.247Z,0.50
2018-01-01T19:34:29.134Z,1.62
2018-01-01T19:37:05.060Z,0.50
2018-01-01T19:39:34.524Z,0.80
2018-01-01T19:42:07.158Z,0.80
2018-01-01T19:44:38.813Z,0.40
2018-01-01T19:47:18.516Z,2.60
2018-01-01T19:49:50.592Z,0.88
2018-01-01T19:52:21.870Z,0.40
2018-01-01T19:55:02.826Z,0.60
2018-01-01T19:57:33.725Z,0.90
2018-01-01T20:00:03.903Z,1.10
2018-01-01T20:02:34.706Z,0.60
2018-01-01T20:05:06.217Z,0.50
2018-01-01T20:07:35.749Z,1.35
2018-01-01T20:10:06.833Z,1.55
2018-01-01T20:12:40.018Z,0.70
2018-01-01T20:15:10.649Z,1.00
2018-01-01T20:17:42.233Z,1.05
2018-01-01T20:20:13.496Z,0.70
2018-01-01T20:22:45.104Z,1.73
2018-01-01T20:25:15.487Z,0.85
2018-01-01T20:27:47.264Z,0.65
2018-01-01T20:30:17.600Z,0.55
2018-01-01T20:32:49.661Z,0.73
2018-01-01T20:35:17.749Z,0.50
2018-01-01T20:37:47.045Z,0.88
2018-01-01T20:40:17.310Z,0.40
2018-01-01T20:42:45.593Z,1.30
2018-01-01T20:45:14.502Z,0.60
2018-01-01T20:47:42.725Z,0.85
2018-01-01T20:50:11.448Z,0.50
2018-01-01T20:52:40.520Z,0.40
2018-01-01T20:55:10.129Z,0.82
2018-01-01T20:57:39.159Z,0.50
2018-01-01T21:00:09.055Z,0.45
2018-01-01T21:02:40.745Z,0.40
2018-01-01T21:05:09.484Z,0.95
2018-01-01T21:10:34.607Z,0.73
2018-01-01T21:13:05.232Z,0.60
2018-01-01T21:15:34.509Z,0.47
2018-01-01T21:18:04.809Z,0.68
2018-01-01T21:20:35.255Z,0.40
2018-01-01T21:23:04.280Z,0.70
2018-01-01T21:25:33.513Z,0.60
2018-01-01T21:28:01.710Z,2.03
2018-01-01T21:30:31.160Z,0.60
2018-01-01T21:33:00.542Z,0.43
2018-01-01T21:35:29.513Z,0.50
2018-01-01T21:37:58.937Z,0.40
2018-01-01T21:40:27.092Z,0.80
2018-01-01T21:42:55.299Z,0.80
2018-01-01T21:45:24.313Z,0.50
2018-01-01T21:47:52.482Z,0.40
2018-01-01T21:50:20.722Z,0.50
2018-01-01T21:52:50.800Z,0.40
2018-01-01T21:55:19.051Z,0.40
2018-01-01T21:57:48.573Z,1.15
2018-01-01T22:00:17.706Z,0.50
2018-01-01T22:02:45.994Z,0.50
2018-01-01T22:05:14.609Z,0.60
2018-01-01T22:07:44.393Z,0.82
2018-01-01T22:10:13.337Z,0.40
2018-01-01T22:12:42.536Z,0.60
2018-01-01T22:15:10.710Z,0.52
2018-01-01T22:17:39.776Z,0.40
2018-01-01T22:20:08.716Z,0.43
2018-01-01T22:22:37.503Z,0.40
2018-01-01T22:25:05.661Z,0.50
2018-01-01T22:27:33.818Z,0.40
2018-01-01T22:30:04.702Z,0.55
2018-01-01T22:32:35.137Z,0.93
2018-01-01T22:35:03.297Z,4.05
2018-01-01T22:37:33.131Z,0.40
2018-01-01T22:40:01.301Z,0.52
2018-01-01T22:42:49.810Z,1.58
2018-01-01T22:45:19.148Z,0.40
2018-01-01T22:47:48.016Z,0.40
2018-01-01T22:50:16.847Z,0.40
2018-01-01T22:52:48.960Z,0.40
2018-01-01T22:55:17.168Z,0.40
2018-01-01T22:57:49.222Z,0.40
2018-01-01T23:00:17.620Z,0.30
2018-01-01T23:02:46.655Z,0.50
2018-01-01T23:05:16.890Z,0.40
2018-01-01T23:07:45.064Z,0.47
2018-01-01T23:10:13.617Z,1.42
2018-01-01T23:12:45.561Z,0.40
2018-01-01T23:15:14.336Z,0.40
2018-01-01T23:17:43.480Z,5.85
2018-01-01T23:20:11.714Z,0.70
2018-01-01T23:22:41.339Z,0.60
2018-01-01T23:25:09.612Z,0.50
2018-01-01T23:27:37.819Z,1.40
2018-01-01T23:30:06.744Z,0.40
2018-01-01T23:32:41.064Z,0.40
2018-01-01T23:35:12.972Z,0.40
2018-01-01T23:37:42.095Z,0.65
2018-01-01T23:40:11.103Z,0.60
2018-01-01T23:42:42.230Z,0.40
2018-01-01T23:45:10.430Z,0.40
2018-01-01T23:47:42.420Z,2.75
2018-01-01T23:50:10.569Z,0.80
2018-01-01T23:52:41.779Z,1.27
2018-01-01T23:55:10.936Z,0.55
2018-01-01T23:57:39.800Z,0.82
